LGAVLGSK

Guest
Details From LGAV - Athens Intl Airport Elefterios Venizel
To LGSK - Skiathos Alexandros Papadiamantis
Flight Number -
Tags decoded
Created
Modified
Stats Distance 83 nm / 154 km
Max Altitude 0 ft / 0 m
Waypoints 6
Social Downloads 8
Likes 0
Share VATSIM

Download

Looking for another format? Having issues loading an existing format? Contact us
Advertisement - Login to hide

Notes

Requested: LGAV ABLON UB1 SKP LGSK

Route

LGAV ABLON UB1 SKP LGSK

ID Type Via Altitude Latitude Longitude Leg Dist Tot Dist Heading (true) Name
O LGAV APT - 0 ft / 0 m 37.93636˚ 23.94447˚ - 0 nm - Athens Intl Airport Elefterios Venizel
ABLON FIX - 0 ft / 0 m 38.16944˚ 23.73556˚ 17 nm 17 nm 325° / 325° -
DILOP FIX UB1 (AWY-HI) 0 ft / 0 m 38.33333˚ 23.71639˚ 9 nm 27 nm 355° / 355° -
OMIRO FIX UB1 (AWY-HI) 0 ft / 0 m 38.75000˚ 23.66722˚ 25 nm 52 nm 355° / 355° -
SKP VOR UB1 (AWY-HI) 0 ft / 0 m 39.18083˚ 23.61583˚ 25 nm 78 nm 355° / 355° SKOPELOS VOR-DME
O LGSK APT - 0 ft / 0 m 39.17710˚ 23.50368˚ 5 nm 83 nm 268° / 268° Skiathos Alexandros Papadiamantis

Altitude Profile

Advertisement - Login to hide

LGAV

Details ICAO LGAV (ATH)
Name Athens Intl Airport Elefterios Venizel
Region Greece
Timezone Europe/Athens (UTC+3.0)
Stats Elevation 308 ft / 94 m (AMSL)
Location 37.936357° 23.944470°
Runways 2
Magnetic Variation 4.527° E

METAR

LGAV 231320Z 04011KT 9999 FEW030 24/16 Q1017 NOSIG

Decode

TAF

TAF TAF LGAV 231100Z 2312/2412 03010KT 9999 FEW030 PROB30 TEMPO 2312/2315 5000 TSRA FEW018CB SCT020 BKN060 BECMG 2407/2409 FEW020 SCT070 PROB30 TEMPO 2409/2412 5000 SHRA FEW018CB SCT020 BKN060

Decode

Departure Runways

ID Width Length Bearing (true) Bearing (mag) Surface Threshold Offset Overrun Length
03L 148 ft / 45 m 12,474 ft / 3,802 m 36.51° 31.98° Asphalt 984 ft / 300 m 393 ft / 120 m
03R 148 ft / 45 m 13,131 ft / 4,002 m 36.52° 31.99° Asphalt 984 ft / 300 m 393 ft / 120 m
21L 148 ft / 45 m 13,131 ft / 4,002 m 216.54° 212.01° Asphalt 984 ft / 300 m 393 ft / 120 m
21R 148 ft / 45 m 12,474 ft / 3,802 m 216.53° 212.00° Asphalt 984 ft / 300 m 393 ft / 120 m

LGSK

Details ICAO LGSK (JSI)
Name Skiathos Alexandros Papadiamantis
Region Greece
Timezone Europe/Athens (UTC+3.0)
Stats Elevation 54 ft / 16 m (AMSL)
Location 39.177100° 23.503677°
Runways 1
Magnetic Variation 4.597° E

METAR

LGSK 231250Z 02009KT 9999 FEW020 SCT025 22/16 Q1017

Decode

TAF

Not found

Destination Runways

ID Width Length Bearing (true) Bearing (mag) Surface Threshold Offset Overrun Length
02 98 ft / 30 m 5,535 ft / 1,687 m 18.96° 14.36° Asphalt 190 ft / 58 m 0 ft / 0 m
20 98 ft / 30 m 5,535 ft / 1,687 m 198.97° 194.37° Asphalt 0 ft / 0 m 242 ft / 74 m

Popular Alternatives